Time;durP1;ratioP1;P1;durP2;ratioP2;P2;SDS_P1;SDS_P2;PMS_P1;PMS_P2;Temp;Humidity;BMP_temperature;BMP_pressure;BME280_temperature;BME280_humidity;BME280_pressure;Samples;Min_cycle;Max_cycle;Signal;HPM_P1;HPM_P2
2024/01/12 00:02:41;;;;;;;;;50.25;39.75;;;;;7.09;79.16;101109.81;146612;598;46012;-68
2024/01/12 00:05:36;;;;;;;;;50.00;39.75;;;;;7.10;79.23;101107.34;146608;569;46014;-68
2024/01/12 00:08:36;;;;;;;;;66.00;49.25;;;;;7.11;78.70;101098.81;146612;591;46016;-69
2024/01/12 00:11:28;;;;;;;;;49.50;39.75;;;;;7.10;78.83;101097.03;146612;574;46011;-69
2024/01/12 00:14:28;;;;;;;;;53.25;41.75;;;;;7.11;79.15;101096.25;146612;563;47013;-69
2024/01/12 00:17:36;;;;;;;;;52.75;42.50;;;;;7.10;78.71;101104.78;146611;565;46010;-70
2024/01/12 00:20:33;;;;;;;;;61.00;46.00;;;;;7.11;79.07;101097.94;146609;584;46914;-69
2024/01/12 00:23:25;;;;;;;;;57.75;46.75;;;;;7.12;78.68;101094.56;146616;612;45020;-70
2024/01/12 00:26:19;;;;;;;;;55.00;43.75;;;;;7.12;78.93;101094.56;146613;572;46011;-69
2024/01/12 00:29:17;;;;;;;;;57.75;45.00;;;;;7.14;78.66;101101.63;146615;578;47010;-70
2024/01/12 00:32:09;;;;;;;;;70.00;54.25;;;;;7.15;78.74;101093.09;146612;706;46017;-69
2024/01/12 00:35:01;;;;;;;;;55.25;44.25;;;;;5.64;78.60;100824.63;146611;575;45020;-73
2024/01/12 00:37:58;;;;;;;;;54.00;42.50;;;;;7.21;78.75;101094.31;146610;589;46016;-70
2024/01/12 00:40:52;;;;;;;;;52.75;43.25;;;;;7.19;78.81;101086.44;146613;654;47021;-68
2024/01/12 00:43:45;;;;;;;;;52.50;41.50;;;;;7.21;78.81;101084.00;146611;612;46033;-67
2024/01/12 00:46:42;;;;;;;;;49.75;41.75;;;;;7.20;78.57;101087.38;146616;571;45020;-68
2024/01/12 00:49:34;;;;;;;;;45.50;36.75;;;;;7.18;78.72;101080.41;146609;593;47016;-68
2024/01/12 00:52:35;;;;;;;;;56.25;42.50;;;;;7.19;78.34;101078.72;146613;622;46020;-68
2024/01/12 00:55:35;;;;;;;;;51.75;41.25;;;;;7.18;78.03;101071.78;146610;565;46012;-68
2024/01/12 00:58:36;;;;;;;;;50.25;41.00;;;;;7.17;78.63;101073.47;146615;569;45029;-67
2024/01/12 01:01:31;;;;;;;;;61.50;45.50;;;;;7.16;78.40;101071.69;146610;565;46015;-67
2024/01/12 01:04:26;;;;;;;;;65.00;47.50;;;;;7.17;78.27;101073.47;146606;566;47010;-68
2024/01/12 01:07:21;;;;;;;;;59.00;45.75;;;;;7.17;78.70;101070.00;146608;687;47012;-68
2024/01/12 01:10:15;;;;;;;;;48.50;39.50;;;;;7.19;78.58;101068.41;146611;572;46010;-70
2024/01/12 01:13:21;;;;;;;;;50.75;39.25;;;;;7.20;78.30;101071.91;146611;600;46016;-66
2024/01/12 01:16:29;;;;;;;;;;;;;;;;;;;;;
2024/01/12 01:19:35;;;;;;;;;38.25;33.25;;;;;7.15;78.22;101056.97;146608;596;47016;-68
2024/01/12 01:22:50;;;;;;;;;46.00;37.75;;;;;7.23;78.27;101064.34;146616;579;46020;-69
2024/01/12 01:25:45;;;;;;;;;45.50;36.75;;;;;7.22;78.10;101055.72;146609;570;46914;-71
2024/01/12 01:28:55;;;;;;;;;36.25;28.75;;;;;7.24;77.91;101050.69;146613;728;47010;-70
2024/01/12 01:32:00;;;;;;;;;29.50;27.00;;;;;3.32;77.32;100362.66;146606;583;47014;-68
2024/01/12 01:34:55;;;;;;;;;27.00;26.00;;;;;7.25;78.27;101048.19;146607;564;46020;-69
2024/01/12 01:37:50;;;;;;;;;30.75;28.75;;;;;7.25;77.96;101042.16;146609;581;46012;-68
2024/01/12 01:40:47;;;;;;;;;57.00;42.75;;;;;7.24;77.79;101035.22;146614;604;46010;-69
2024/01/12 01:43:44;;;;;;;;;60.25;46.75;;;;;7.26;77.95;101034.53;146614;571;46016;-67
2024/01/12 01:46:46;;;;;;;;;63.00;47.75;;;;;7.24;78.08;101019.72;146615;608;47015;-70
2024/01/12 01:49:50;;;;;;;;;51.75;40.25;;;;;7.26;78.01;101020.72;146611;627;47016;-68
2024/01/12 01:52:49;;;;;;;;;31.50;29.75;;;;;7.24;77.75;101015.47;146612;604;46010;-68
2024/01/12 01:55:43;;;;;;;;;31.25;27.00;;;;;7.21;77.96;101007.50;146607;610;46012;-67
2024/01/12 01:58:40;;;;;;;;;31.75;28.50;;;;;7.19;77.86;101003.94;146607;614;47020;-67
2024/01/12 02:01:39;;;;;;;;;31.25;29.75;;;;;7.16;77.78;100994.31;146609;605;47021;-66
2024/01/12 02:04:40;;;;;;;;;33.50;30.50;;;;;7.16;78.04;100988.25;146606;590;46010;-66
2024/01/12 02:07:35;;;;;;;;;41.75;34.75;;;;;7.14;78.25;100988.16;146610;622;47012;-68
2024/01/12 02:10:30;;;;;;;;;38.00;32.50;;;;;7.15;78.34;100984.78;146613;570;45997;-68
2024/01/12 02:13:32;;;;;;;;;33.75;31.50;;;;;7.13;78.35;100982.87;146609;620;46012;-69
2024/01/12 02:16:41;;;;;;;;;41.25;30.75;;;;;7.14;78.30;100982.09;146613;608;47011;-68
2024/01/12 02:19:40;;;;;;;;;41.50;33.00;;;;;7.13;78.77;100980.28;146605;630;47912;-68
2024/01/12 02:22:35;;;;;;;;;28.75;28.50;;;;;7.13;78.46;100986.37;146611;613;47020;-70
2024/01/12 02:25:38;;;;;;;;;36.00;31.25;;;;;7.16;78.06;100980.50;146608;575;46014;-68
2024/01/12 02:28:31;;;;;;;;;38.00;30.25;;;;;7.15;78.37;100978.72;146612;615;46010;-68
2024/01/12 02:31:41;;;;;;;;;32.50;25.75;;;;;3.07;77.42;100268.59;146609;631;46017;-68
2024/01/12 02:34:47;;;;;;;;;40.50;33.00;;;;;7.20;78.34;100985.09;146606;579;46020;-69
2024/01/12 02:37:49;;;;;;;;;39.75;31.25;;;;;7.21;78.46;100980.84;146608;564;47015;-70
2024/01/12 02:40:47;;;;;;;;;31.25;28.75;;;;;7.22;78.52;100967.12;146609;676;47010;-70
2024/01/12 02:43:40;;;;;;;;;40.00;31.75;;;;;7.23;78.68;100962.09;146606;643;47016;-68
2024/01/12 02:46:40;;;;;;;;;35.50;31.00;;;;;7.25;79.24;100954.44;146615;738;46020;-69
2024/01/12 02:49:45;;;;;;;;;34.75;29.75;;;;;7.26;79.02;100961.38;146608;612;47012;-68
2024/01/12 02:52:43;;;;;;;;;38.00;30.75;;;;;7.27;79.03;100958.94;146613;647;46010;-69
2024/01/12 02:55:40;;;;;;;;;37.75;33.00;;;;;7.26;78.95;100953.66;146611;624;46016;-68
2024/01/12 02:58:33;;;;;;;;;37.50;32.00;;;;;7.25;79.00;100951.87;146612;664;47020;-67
2024/01/12 03:01:37;;;;;;;;;34.00;27.50;;;;;7.25;78.91;100951.87;146612;590;46016;-67
2024/01/12 03:04:32;;;;;;;;;31.00;26.25;;;;;7.25;78.84;100946.72;146606;569;47010;-69
2024/01/12 03:07:33;;;;;;;;;36.75;30.00;;;;;7.24;78.72;100944.94;146611;631;46016;-69
2024/01/12 03:10:26;;;;;;;;;43.00;32.75;;;;;7.24;78.65;100935.50;146609;616;46020;-71
2024/01/12 03:13:19;;;;;;;;;33.50;29.00;;;;;7.23;78.94;100944.03;146610;718;46916;-72
2024/01/12 03:16:23;;;;;;;;;30.75;27.25;;;;;7.20;78.76;100928.37;146612;571;46011;-71
2024/01/12 03:19:19;;;;;;;;;35.00;29.00;;;;;7.21;78.65;100931.84;146610;630;46016;-69
2024/01/12 03:22:12;;;;;;;;;37.75;30.75;;;;;7.20;78.74;100932.63;146617;570;46011;-70
2024/01/12 03:25:12;;;;;;;;;44.75;34.75;;;;;7.19;78.87;100931.72;146613;626;45043;-69
2024/01/12 03:28:16;;;;;;;;;33.25;29.25;;;;;7.19;78.70;100923.97;146611;597;46010;-69
2024/01/12 03:31:17;;;;;;;;;29.50;28.25;;;;;7.15;78.45;100912.56;146611;605;46017;-67
2024/01/12 03:34:14;;;;;;;;;36.50;32.50;;;;;7.08;78.53;100912.06;146608;687;46020;-67
2024/01/12 03:37:14;;;;;;;;;30.50;26.50;;;;;7.11;78.52;100920.88;146606;604;46916;-69
2024/01/12 03:40:14;;;;;;;;;33.50;27.50;;;;;7.07;78.62;100917.97;146613;634;47020;-69
2024/01/12 03:43:09;;;;;;;;;31.00;30.00;;;;;5.42;78.89;100632.81;146610;610;46014;-67
2024/01/12 03:46:04;;;;;;;;;31.25;28.50;;;;;7.04;78.93;100913.53;146613;615;46021;-66
2024/01/12 03:49:01;;;;;;;;;36.00;31.00;;;;;7.01;79.76;100918.50;146610;569;47016;-68
2024/01/12 03:52:04;;;;;;;;;;;;;;;;;;;;;
2024/01/12 03:54:57;;;;;;;;;31.50;26.25;;;;;6.97;80.30;100920.72;146608;593;47016;-65
2024/01/12 03:57:54;;;;;;;;;37.75;28.75;;;;;6.94;80.79;100924.87;146610;622;46020;-69
2024/01/12 04:01:12;;;;;;;;;43.25;31.25;;;;;6.90;80.29;100917.72;146610;628;46017;-67
2024/01/12 04:04:15;;;;;;;;;33.50;28.50;;;;;6.90;80.83;100928.03;146607;610;46020;-66
2024/01/12 04:07:27;;;;;;;;;35.00;28.25;;;;;6.89;80.19;100933.09;146609;642;46016;-68
2024/01/12 04:10:31;;;;;;;;;32.75;30.75;;;;;6.85;80.47;100925.94;146612;592;46020;-68
2024/01/12 04:13:28;;;;;;;;;30.75;28.25;;;;;6.84;80.50;100929.31;146609;564;46012;-67
2024/01/12 04:16:33;;;;;;;;;33.50;29.50;;;;;6.83;79.98;100924.94;146609;586;46021;-69
2024/01/12 04:19:31;;;;;;;;;32.50;28.75;;;;;6.81;79.88;100916.22;146606;615;47016;-67
2024/01/12 04:22:32;;;;;;;;;33.00;30.00;;;;;6.83;80.19;100920.69;146610;574;48020;-69
2024/01/12 04:25:30;;;;;;;;;34.75;30.25;;;;;6.86;79.55;100927.75;146610;602;46016;-69
2024/01/12 04:28:25;;;;;;;;;36.00;32.00;;;;;6.86;80.41;100926.06;146615;577;46010;-67
2024/01/12 04:31:20;;;;;;;;;36.25;31.75;;;;;6.88;79.58;100926.13;146608;609;46034;-69
2024/01/12 04:34:21;;;;;;;;;42.75;31.25;;;;;6.89;80.22;100921.09;146603;616;48010;-69
2024/01/12 04:37:26;;;;;;;;;31.50;30.00;;;;;6.88;79.90;100921.00;146607;565;47012;-69
2024/01/12 04:40:18;;;;;;;;;34.25;30.25;;;;;6.87;79.91;100919.22;146613;596;46020;-70
2024/01/12 04:43:15;;;;;;;;;43.75;35.75;;;;;6.88;79.76;100921.87;146610;573;46012;-71
2024/01/12 04:46:07;;;;;;;;;32.50;29.50;;;;;6.89;79.47;100921.09;146613;569;46010;-70
2024/01/12 04:49:02;;;;;;;;;34.25;31.50;;;;;6.90;79.53;100925.47;146606;607;47038;-71
2024/01/12 04:52:03;;;;;;;;;42.25;34.25;;;;;6.89;79.66;100926.25;146611;635;47020;-69
2024/01/12 04:55:16;;;;;;;;;34.75;30.00;;;;;6.81;79.52;100916.22;146609;635;46012;-70
2024/01/12 04:58:14;;;;;;;;;34.75;30.75;;;;;6.85;79.91;100941.41;146612;570;46020;-71
2024/01/12 05:01:19;;;;;;;;;35.75;30.75;;;;;4.72;79.85;100569.56;146608;610;46012;-68
2024/01/12 05:04:22;;;;;;;;;41.50;34.50;;;;;6.78;79.60;100932.34;146605;607;47014;-70
2024/01/12 05:07:13;;;;;;;;;36.00;29.75;;;;;6.76;80.09;100936.53;146609;571;47012;-72
2024/01/12 05:10:07;;;;;;;;;38.25;33.00;;;;;6.76;79.66;100933.03;146609;586;47020;-70
2024/01/12 05:13:00;;;;;;;;;37.25;32.25;;;;;6.76;79.61;100928.78;146609;583;47016;-71
2024/01/12 05:16:00;;;;;;;;;46.00;35.50;;;;;6.78;78.86;100936.62;146612;643;46020;-72
2024/01/12 05:18:58;;;;;;;;;44.00;35.00;;;;;6.79;80.18;100936.72;146609;597;47016;-71
2024/01/12 05:21:54;;;;;;;;;41.50;34.75;;;;;6.76;80.39;100933.03;146614;653;46010;-70
2024/01/12 05:24:46;;;;;;;;;40.25;34.50;;;;;6.74;81.14;100940.66;146609;582;46035;-71
2024/01/12 05:27:42;;;;;;;;;43.00;35.50;;;;;6.72;81.00;100943.13;146612;574;46020;-70
2024/01/12 05:30:34;;;;;;;;;45.00;36.50;;;;;6.71;81.23;100945.59;146609;639;46917;-71
2024/01/12 05:33:37;;;;;;;;;43.50;35.25;;;;;6.73;80.91;100946.63;146607;600;46010;-71
2024/01/12 05:36:29;;;;;;;;;50.75;39.50;;;;;6.72;80.75;100939.66;146608;574;46916;-71
2024/01/12 05:39:22;;;;;;;;;43.75;36.00;;;;;6.73;81.32;100946.63;146614;580;46020;-70
2024/01/12 05:42:14;;;;;;;;;43.50;34.25;;;;;6.72;80.94;100944.81;146612;584;47016;-70
2024/01/12 05:45:20;;;;;;;;;45.50;36.75;;;;;6.72;80.83;100949.97;146612;565;47010;-71
2024/01/12 05:48:15;;;;;;;;;47.00;36.50;;;;;6.74;80.58;100948.41;146609;599;46016;-68
2024/01/12 05:51:11;;;;;;;;;44.50;36.00;;;;;6.75;80.47;100942.44;146616;564;46011;-72
2024/01/12 05:54:05;;;;;;;;;49.00;37.00;;;;;6.79;80.15;100946.13;146608;622;49016;-74
2024/01/12 05:57:02;;;;;;;;;42.75;34.25;;;;;6.81;80.33;100941.97;146614;619;46020;-71
2024/01/12 05:59:58;;;;;;;;;46.75;36.25;;;;;6.83;79.71;100941.31;146609;573;46012;-72
2024/01/12 06:02:55;;;;;;;;;48.75;40.50;;;;;6.84;79.96;100944.78;146606;597;47020;-68
2024/01/12 06:05:50;;;;;;;;;40.00;33.75;;;;;6.85;79.98;100943.97;146610;564;46017;-69
2024/01/12 06:08:42;;;;;;;;;41.00;34.00;;;;;6.84;80.18;100943.09;146612;570;46014;-69
2024/01/12 06:11:38;;;;;;;;;45.00;36.75;;;;;6.83;79.88;100938.72;146608;582;46016;-70
2024/01/12 06:14:35;;;;;;;;;46.50;33.75;;;;;6.82;80.68;100949.84;146613;642;46021;-70
2024/01/12 06:17:31;;;;;;;;;48.00;37.75;;;;;6.79;80.03;100948.69;146608;583;47012;-69
2024/01/12 06:20:27;;;;;;;;;46.75;37.50;;;;;6.77;80.13;100943.47;146615;617;46020;-70
2024/01/12 06:23:20;;;;;;;;;49.75;37.50;;;;;6.78;80.06;100945.22;146608;624;46016;-70
2024/01/12 06:26:19;;;;;;;;;39.25;35.00;;;;;6.81;79.76;100950.59;146611;587;47020;-70
2024/01/12 06:29:11;;;;;;;;;42.00;33.50;;;;;6.84;79.59;100944.78;146609;564;46017;-70
2024/01/12 06:32:15;;;;;;;;;45.50;36.25;;;;;6.84;79.60;100945.66;146605;574;46020;-71
2024/01/12 06:35:23;;;;;;;;;51.00;40.00;;;;;6.87;79.13;100950.13;146609;640;47017;-71
2024/01/12 06:38:16;;;;;;;;;47.75;37.50;;;;;6.87;79.12;100945.87;146616;606;46010;-72
2024/01/12 06:41:08;;;;;;;;;47.75;36.75;;;;;6.90;79.03;100955.50;146610;594;46016;-71
2024/01/12 06:44:19;;;;;;;;;;;;;;;;;;;;;
2024/01/12 06:47:11;;;;;;;;;51.75;41.50;;;;;6.93;78.57;100940.25;146609;615;47012;-73
2024/01/12 06:50:14;;;;;;;;;48.50;36.75;;;;;6.93;78.26;100953.16;146614;600;46021;-74
2024/01/12 06:53:09;;;;;;;;;49.50;36.25;;;;;6.92;77.88;100956.53;146609;572;47017;-77
2024/01/12 06:56:11;;;;;;;;;50.00;40.50;;;;;6.86;77.87;100933.78;146612;578;47010;-74
2024/01/12 06:59:10;;;;;;;;;50.75;41.00;;;;;7.32;79.96;100962.72;146609;571;47017;-73
2024/01/12 07:02:19;;;;;;;;;;;;;;;;;;;;;
2024/01/12 07:05:18;;;;;;;;;42.00;32.50;;;;;8.58;79.97;100957.16;146611;636;47012;-78
2024/01/12 07:08:18;;;;;;;;;47.75;37.00;;;;;9.14;75.55;100952.88;146611;572;46010;-75
2024/01/12 07:11:13;;;;;;;;;51.00;40.50;;;;;9.74;73.11;100958.13;146611;584;46016;-74
2024/01/12 07:14:17;;;;;;;;;52.00;40.00;;;;;10.45;70.66;100969.13;146611;583;47010;-71
2024/01/12 07:17:14;;;;;;;;;52.25;37.75;;;;;11.17;67.03;100957.44;146607;712;47012;-70
2024/01/12 07:20:13;;;;;;;;;45.50;34.25;;;;;11.56;64.66;100974.22;146614;567;46020;-74
2024/01/12 07:23:14;;;;;;;;;46.25;39.00;;;;;11.86;62.95;100974.00;146608;569;46914;-75
2024/01/12 07:26:19;;;;;;;;;50.50;39.00;;;;;12.19;62.38;100979.97;146615;630;46020;-75
2024/01/12 07:29:14;;;;;;;;;45.50;36.75;;;;;12.44;60.73;100979.44;146608;570;47916;-74
2024/01/12 07:32:12;;;;;;;;;44.00;35.25;;;;;12.51;59.21;100977.13;146607;574;48010;-73
2024/01/12 07:35:15;;;;;;;;;44.50;34.50;;;;;12.39;57.73;100978.31;146609;583;46042;-70
2024/01/12 07:38:16;;;;;;;;;43.25;35.25;;;;;12.25;59.74;100979.37;146613;585;46020;-67
2024/01/12 07:41:17;;;;;;;;;44.25;37.25;;;;;12.10;59.66;100979.53;146609;620;47012;-69
2024/01/12 07:44:28;;;;;;;;;49.00;38.25;;;;;12.10;59.77;100984.72;146613;569;47010;-69
2024/01/12 07:47:20;;;;;;;;;48.25;37.25;;;;;11.87;58.04;100977.47;146612;574;46016;-73
2024/01/12 07:50:17;;;;;;;;;53.25;41.75;;;;;11.62;59.80;100983.09;146612;650;46021;-70
2024/01/12 07:53:16;;;;;;;;;45.50;36.25;;;;;11.47;61.02;100986.72;146613;584;46036;-70
2024/01/12 07:56:18;;;;;;;;;46.25;38.25;;;;;11.32;60.79;100992.00;146611;633;47014;-68
2024/01/12 07:59:18;;;;;;;;;43.50;35.00;;;;;11.19;60.95;100980.91;146605;592;47050;-70
2024/01/12 08:02:28;;;;;;;;;45.25;35.75;;;;;10.92;61.40;100991.59;146606;718;46020;-69
2024/01/12 08:05:29;;;;;;;;;46.00;36.00;;;;;10.68;61.56;100983.34;146600;812;47016;-71
2024/01/12 08:08:27;;;;;;;;;48.00;39.00;;;;;10.52;62.59;100979.03;146609;563;48010;-71
2024/01/12 08:11:33;;;;;;;;;46.25;38.50;;;;;10.53;63.61;100982.50;146613;660;46016;-70
2024/01/12 08:14:35;;;;;;;;;44.75;35.75;;;;;10.61;63.17;100989.03;146613;594;46010;-70
2024/01/12 08:17:38;;;;;;;;;46.25;36.00;;;;;10.61;62.09;100991.62;146610;582;46014;-71
2024/01/12 08:20:39;;;;;;;;;40.75;32.25;;;;;10.55;61.26;100986.97;146613;580;46021;-71
2024/01/12 08:23:31;;;;;;;;;31.50;29.25;;;;;10.52;61.29;100976.44;146609;738;47016;-71
2024/01/12 08:26:30;;;;;;;;;35.50;31.25;;;;;10.53;61.29;100991.22;146610;578;46020;-70
2024/01/12 08:29:22;;;;;;;;;39.00;32.00;;;;;10.54;60.92;100994.69;146605;607;48012;-71
2024/01/12 08:32:19;;;;;;;;;42.75;33.50;;;;;10.61;60.94;100994.22;146605;576;48010;-70
2024/01/12 08:35:17;;;;;;;;;37.75;32.50;;;;;10.73;61.63;101004.38;146611;613;46016;-72
2024/01/12 08:38:12;;;;;;;;;37.75;32.00;;;;;10.82;59.95;101002.28;146615;763;46010;-69
2024/01/12 08:41:14;;;;;;;;;38.75;30.75;;;;;10.82;59.10;100994.50;146607;570;47016;-72
2024/01/12 08:44:11;;;;;;;;;42.25;32.50;;;;;10.62;60.10;100964.88;146611;575;46010;-72
2024/01/12 08:47:10;;;;;;;;;40.25;33.00;;;;;10.79;60.58;101002.13;146611;605;46016;-72
2024/01/12 08:50:13;;;;;;;;;35.50;31.75;;;;;10.77;59.59;101007.19;146611;574;46021;-71
2024/01/12 08:53:09;;;;;;;;;35.25;31.25;;;;;10.72;59.38;101002.59;146608;581;46016;-69
2024/01/12 08:56:06;;;;;;;;;32.00;29.75;;;;;10.55;59.82;100978.31;146610;605;47015;-72
2024/01/12 08:58:59;;;;;;;;;37.75;31.25;;;;;10.75;60.37;101011.44;146607;565;47012;-72
2024/01/12 09:01:56;;;;;;;;;36.25;30.00;;;;;10.85;61.60;101015.41;146605;635;47010;-72
2024/01/12 09:05:03;;;;;;;;;36.00;30.25;;;;;10.96;59.15;101009.09;146611;611;46016;-72
2024/01/12 09:08:00;;;;;;;;;34.50;31.50;;;;;11.08;58.61;101009.75;146614;596;46010;-73
2024/01/12 09:10:57;;;;;;;;;42.00;31.50;;;;;11.21;58.71;101016.50;146609;694;46017;-74
2024/01/12 09:14:07;;;;;;;;;;;;;;;;;;;;;
2024/01/12 09:17:03;;;;;;;;;38.50;31.50;;;;;11.49;57.90;101004.97;146611;563;46012;-71
2024/01/12 09:20:01;;;;;;;;;32.75;30.00;;;;;11.61;57.09;101003.00;146610;608;46020;-71
2024/01/12 09:22:53;;;;;;;;;30.25;25.25;;;;;11.74;57.54;101001.91;146610;604;47016;-73
2024/01/12 09:25:52;;;;;;;;;24.75;23.25;;;;;11.89;56.89;100996.66;146613;642;45030;-72
2024/01/12 09:28:54;;;;;;;;;23.00;19.50;;;;;11.98;52.10;100994.50;146610;594;46012;-70
2024/01/12 09:31:48;;;;;;;;;21.75;20.00;;;;;12.01;50.51;100992.94;146607;578;46020;-71
2024/01/12 09:34:43;;;;;;;;;22.50;18.75;;;;;11.97;48.02;100977.16;146605;618;47013;-70
2024/01/12 09:37:48;;;;;;;;;20.00;15.25;;;;;12.02;50.08;100984.34;146611;661;46010;-71
2024/01/12 09:41:03;;;;;;;;;27.50;23.00;;;;;12.09;47.87;100988.16;146611;677;46012;-71
2024/01/12 09:44:03;;;;;;;;;29.00;26.25;;;;;12.20;49.05;100991.25;146610;564;47010;-71
2024/01/12 09:47:04;;;;;;;;;19.00;17.75;;;;;12.34;49.71;100992.84;146613;592;46016;-71
2024/01/12 09:50:17;;;;;;;;;16.00;12.25;;;;;9.13;50.89;100386.31;146614;599;46010;-70
2024/01/12 09:53:09;;;;;;;;;16.75;14.50;;;;;12.83;45.78;100994.25;146608;602;46016;-69
2024/01/12 09:56:04;;;;;;;;;18.25;13.50;;;;;13.03;43.87;100984.75;146611;609;46021;-69
2024/01/12 09:58:58;;;;;;;;;14.00;12.00;;;;;13.08;42.13;100970.22;146608;598;47016;-69
2024/01/12 10:01:53;;;;;;;;;13.50;13.50;;;;;13.23;44.11;100977.84;146601;614;46020;-70
2024/01/12 10:04:51;;;;;;;;;10.75;10.50;;;;;13.39;43.98;100977.72;146611;575;46012;-68
2024/01/12 10:07:43;;;;;;;;;15.00;12.00;;;;;13.44;39.43;100976.22;146606;618;48010;-69
2024/01/12 10:10:37;;;;;;;;;10.75;10.00;;;;;13.46;41.41;100997.09;146607;569;46015;-70
2024/01/12 10:16:46;;;;;;;;;12.00;11.00;;;;;13.52;39.79;100982.66;146615;581;47018;-69
2024/01/12 10:19:42;;;;;;;;;21.25;18.75;;;;;13.39;37.40;100973.41;146607;575;48010;-68
2024/01/12 10:22:37;;;;;;;;;7.50;7.00;;;;;13.28;40.09;100966.84;146608;563;46016;-71
2024/01/12 10:25:45;;;;;;;;;11.50;10.00;;;;;9.54;45.56;100297.81;146617;720;46010;-70
2024/01/12 10:28:40;;;;;;;;;9.00;7.75;;;;;13.41;39.50;100963.06;146608;614;47021;-71
2024/01/12 10:31:42;;;;;;;;;8.25;7.75;;;;;13.46;36.69;100955.44;146609;600;46020;-69
2024/01/12 10:34:44;;;;;;;;;10.75;8.00;;;;;13.36;36.17;100947.25;146618;644;46014;-68
2024/01/12 10:37:47;;;;;;;;;6.75;6.00;;;;;13.25;41.58;100961.50;146613;617;47010;-71
2024/01/12 10:40:42;;;;;;;;;9.25;8.25;;;;;13.24;38.03;100959.69;146616;569;46014;-70
2024/01/12 10:43:45;;;;;;;;;9.75;8.00;;;;;13.39;38.79;100965.59;146618;569;46020;-70
2024/01/12 10:47:06;;;;;;;;;9.00;8.00;;;;;10.17;40.69;100384.53;146613;571;46016;-69
2024/01/12 10:50:13;;;;;;;;;6.00;5.25;;;;;12.14;37.93;100737.09;146623;571;46010;-71
2024/01/12 10:53:19;;;;;;;;;7.50;5.25;;;;;13.44;36.57;100977.94;146620;639;46016;-67
2024/01/12 10:56:20;;;;;;;;;5.50;3.75;;;;;13.32;35.37;100978.28;146618;682;46020;-69
2024/01/12 10:59:13;;;;;;;;;4.50;4.50;;;;;13.24;34.90;100964.91;146618;634;47016;-68
2024/01/12 11:02:37;;;;;;;;;5.50;5.50;;;;;13.24;42.59;100966.59;146607;598;46029;-68
2024/01/12 11:05:32;;;;;;;;;6.00;6.00;;;;;13.30;37.64;100952.19;146615;565;46017;-69
2024/01/12 11:08:26;;;;;;;;;14.00;13.75;;;;;13.48;38.69;100959.88;146620;583;46010;-68
2024/01/12 11:11:26;;;;;;;;;21.25;17.75;;;;;13.61;35.23;100949.19;146611;616;46014;-67
2024/01/12 11:14:23;;;;;;;;;11.00;9.00;;;;;12.32;37.33;100720.56;146610;690;47020;-69
2024/01/12 11:17:19;;;;;;;;;14.25;14.25;;;;;13.64;38.72;100951.00;146615;603;47017;-72
2024/01/12 11:20:22;;;;;;;;;13.00;12.00;;;;;13.55;37.45;100953.22;146615;640;48014;-69
2024/01/12 11:23:19;;;;;;;;;8.75;6.75;;;;;13.52;38.19;100950.47;146614;579;47012;-70
2024/01/12 11:26:16;;;;;;;;;6.75;6.75;;;;;13.52;37.21;100947.88;146617;680;48010;-70
2024/01/12 11:29:18;;;;;;;;;9.25;6.75;;;;;13.48;37.64;100959.00;146614;620;45916;-68
2024/01/12 11:32:10;;;;;;;;;7.25;7.25;;;;;13.52;37.43;100945.28;146612;599;46010;-69
2024/01/12 11:34:48;;;;;;;;;9.75;6.75;;;;;13.50;36.02;100937.41;146698;564;47012;-71
2024/01/12 11:37:47;;;;;;;;;6.75;6.25;;;;;13.61;35.65;100938.75;146614;612;47943;-71
2024/01/12 11:40:43;;;;;;;;;6.00;6.00;;;;;13.64;35.47;100953.59;146622;565;46011;-68
2024/01/12 11:43:52;;;;;;;;;6.00;5.75;;;;;13.65;42.34;100955.41;146616;698;47016;-72
2024/01/12 11:46:48;;;;;;;;;9.00;9.00;;;;;13.80;39.13;100965.56;146617;675;46020;-71
2024/01/12 11:49:44;;;;;;;;;8.25;7.50;;;;;14.04;36.67;100963.97;146615;580;48012;-71
2024/01/12 11:52:45;;;;;;;;;6.75;5.00;;;;;14.23;39.14;100964.72;146624;569;47010;-68
2024/01/12 11:55:40;;;;;;;;;8.50;6.75;;;;;14.23;35.73;100956.91;146616;594;47919;-70
2024/01/12 11:58:37;;;;;;;;;10.75;9.25;;;;;14.19;36.25;100953.28;146623;633;46010;-69
2024/01/12 12:01:31;;;;;;;;;3.25;3.25;;;;;14.14;34.46;100949.59;146617;667;46012;-71
2024/01/12 12:04:30;;;;;;;;;4.75;4.75;;;;;13.99;35.43;100949.88;146618;619;46010;-70
2024/01/12 12:07:40;;;;;;;;;5.00;4.00;;;;;13.80;38.79;100936.91;146612;565;47918;-69
2024/01/12 12:10:35;;;;;;;;;5.25;5.00;;;;;13.78;37.01;100944.66;146619;587;46021;-70
2024/01/12 12:13:37;;;;;;;;;7.00;5.75;;;;;13.80;37.14;100935.22;146617;563;47012;-69
2024/01/12 12:16:33;;;;;;;;;9.00;8.00;;;;;13.84;38.22;100913.66;146620;676;46010;-70
2024/01/12 12:19:42;;;;;;;;;0.25;0.00;;;;;13.92;38.76;100920.88;146614;564;47012;-69
2024/01/12 12:22:45;;;;;;;;;;;;;;;;;;;;;
2024/01/12 12:25:44;;;;;;;;;11.00;10.00;;;;;13.93;37.97;100913.12;146618;566;46018;-68
2024/01/12 12:28:51;;;;;;;;;6.75;6.50;;;;;13.97;40.72;100925.47;146614;642;46020;-69
2024/01/12 12:31:49;;;;;;;;;13.75;12.25;;;;;14.06;37.21;100932.78;146616;689;46017;-69
2024/01/12 12:35:04;;;;;;;;;12.50;9.25;;;;;14.13;40.81;100921.75;146612;566;47020;-70
2024/01/12 12:38:05;;;;;;;;;8.50;6.75;;;;;14.20;38.91;100920.28;146617;567;47035;-70
2024/01/12 12:41:00;;;;;;;;;8.00;6.50;;;;;14.22;38.00;100910.78;146625;592;49018;-74
2024/01/12 12:43:53;;;;;;;;;10.75;7.50;;;;;14.22;38.39;100911.69;146619;604;47016;-74
2024/01/12 12:46:48;;;;;;;;;10.50;8.50;;;;;14.32;38.55;100919.03;146624;581;46021;-74
2024/01/12 12:49:42;;;;;;;;;8.00;6.00;;;;;14.41;37.42;100928.06;146625;633;46031;-74
2024/01/12 12:52:51;;;;;;;;;4.75;4.00;;;;;14.39;37.38;100904.53;146627;573;47026;-74
2024/01/12 12:55:46;;;;;;;;;5.50;5.00;;;;;14.40;36.68;100934.12;146621;621;47016;-74
2024/01/12 12:58:39;;;;;;;;;6.50;5.00;;;;;14.38;37.87;100952.28;146628;578;46020;-75
2024/01/12 13:01:31;;;;;;;;;19.25;16.00;;;;;14.41;38.53;100939.38;146618;590;46014;-73
2024/01/12 13:04:27;;;;;;;;;18.00;14.00;;;;;14.54;37.68;100946.00;146615;569;46010;-75
2024/01/12 13:07:21;;;;;;;;;11.50;9.50;;;;;14.66;38.55;100941.25;146615;592;47012;-73
2024/01/12 13:10:17;;;;;;;;;8.75;8.75;;;;;14.78;37.66;100939.09;146630;622;47021;-74
2024/01/12 13:13:22;;;;;;;;;10.00;9.00;;;;;14.72;37.87;100945.81;146622;616;47014;-73
2024/01/12 13:16:20;;;;;;;;;9.25;7.25;;;;;14.71;38.13;100957.09;146626;564;47010;-75
2024/01/12 13:19:26;;;;;;;;;8.75;7.00;;;;;14.83;39.92;100941.91;146621;674;46916;-74
2024/01/12 13:22:24;;;;;;;;;8.25;3.00;;;;;14.94;39.29;100939.66;146629;564;46020;-73
2024/01/12 13:25:26;;;;;;;;;7.25;5.75;;;;;14.98;35.77;100937.25;146626;618;46917;-73
2024/01/12 13:28:27;;;;;;;;;7.00;5.00;;;;;14.93;36.96;100953.56;146626;653;47012;-72
2024/01/12 13:31:22;;;;;;;;;8.00;7.50;;;;;14.96;37.41;100958.91;146626;596;47012;-73
2024/01/12 13:34:22;;;;;;;;;10.50;9.00;;;;;14.83;35.02;100947.12;146630;569;46010;-73
2024/01/12 13:37:16;;;;;;;;;7.00;7.00;;;;;14.72;36.18;100951.91;146623;707;46012;-74
2024/01/12 13:40:09;;;;;;;;;6.75;5.75;;;;;14.46;36.75;100953.50;146629;646;46010;-74
2024/01/12 13:43:03;;;;;;;;;5.75;5.00;;;;;14.19;36.28;100962.84;146624;618;46916;-75
2024/01/12 13:45:56;;;;;;;;;6.00;6.00;;;;;14.01;38.02;100960.34;146628;592;46021;-72
2024/01/12 13:48:56;;;;;;;;;10.75;8.75;;;;;13.98;39.23;100961.12;146619;695;46016;-73
2024/01/12 13:52:02;;;;;;;;;7.75;6.00;;;;;13.96;39.96;100970.62;146625;599;46010;-73
2024/01/12 13:54:54;;;;;;;;;10.50;9.25;;;;;13.96;38.67;100962.78;146617;589;47917;-72